Time;durP1;ratioP1;P1;durP2;ratioP2;P2;SDS_P1;SDS_P2;PMS_P1;PMS_P2;Temp;Humidity;BMP_temperature;BMP_pressure;BME280_temperature;BME280_humidity;BME280_pressure;Samples;Min_cycle;Max_cycle;Signal;HPM_P1;HPM_P2
2024/01/07 17:30:03;;;;;;;11.55;5.32;;;18.50;48.70;;;;;;5158539;27;20452;-55
2024/01/07 17:32:29;;;;;;;10.73;5.10;;;18.50;46.20;;;;;;5129711;28;20031;-55
2024/01/07 17:34:55;;;;;;;10.50;5.35;;;18.60;44.80;;;;;;5129456;28;20251;-54
2024/01/07 17:37:22;;;;;;;9.07;5.13;;;18.50;42.70;;;;;;5129604;28;20106;-55
2024/01/07 17:39:48;;;;;;;11.40;4.88;;;18.40;42.20;;;;;;5119303;28;20045;-55
2024/01/07 17:42:14;;;;;;;9.82;5.75;;;18.30;41.70;;;;;;5128600;28;20037;-56
2024/01/07 17:44:40;;;;;;;10.45;4.90;;;18.20;41.30;;;;;;5129467;28;20110;-56
2024/01/07 17:47:06;;;;;;;10.95;4.90;;;18.20;41.80;;;;;;5129198;28;20142;-57
2024/01/07 17:49:32;;;;;;;8.18;4.35;;;18.20;42.40;;;;;;5129147;28;20113;-57
2024/01/07 17:51:58;;;;;;;8.60;4.32;;;18.20;41.40;;;;;;5129388;28;20028;-57
2024/01/07 17:54:24;;;;;;;9.07;4.47;;;18.20;42.50;;;;;;5129343;28;20023;-56
2024/01/07 17:56:53;;;;;;;9.00;4.78;;;18.30;43.90;;;;;;5129213;28;20118;-57
2024/01/07 17:59:19;;;;;;;13.63;4.20;;;18.40;45.50;;;;;;5123343;28;20088;-57
2024/01/07 18:01:48;;;;;;;7.07;4.22;;;18.50;45.40;;;;;;5128669;28;20532;-56
2024/01/07 18:04:14;;;;;;;11.90;4.60;;;18.60;44.30;;;;;;5129357;28;20020;-55
2024/01/07 18:06:40;;;;;;;12.15;4.63;;;18.70;44.10;;;;;;5127059;28;20314;-57
2024/01/07 18:09:06;;;;;;;8.80;3.92;;;18.80;44.70;;;;;;5128117;28;20402;-56
2024/01/07 18:11:33;;;;;;;9.95;4.78;;;18.90;44.80;;;;;;5127018;28;20027;-56
2024/01/07 18:13:59;;;;;;;9.20;4.50;;;18.90;45.00;;;;;;5128804;28;20035;-57
2024/01/07 18:16:25;;;;;;;8.43;4.20;;;19.00;44.60;;;;;;5128771;28;20092;-57
2024/01/07 18:18:51;;;;;;;8.50;4.22;;;19.10;44.90;;;;;;5120235;27;20031;-49
2024/01/07 18:21:17;;;;;;;6.47;4.03;;;19.10;45.10;;;;;;5115407;28;20027;-56
2024/01/07 18:23:43;;;;;;;8.68;4.35;;;19.20;45.40;;;;;;5125708;27;20062;-58
2024/01/07 18:26:10;;;;;;;12.55;4.63;;;19.20;45.80;;;;;;5119903;28;20493;-55
2024/01/07 18:28:37;;;;;;;10.57;4.10;;;19.20;46.00;;;;;;5109370;27;20135;-55
2024/01/07 18:31:02;;;;;;;9.48;4.30;;;19.20;46.20;;;;;;5101261;28;20486;-54
2024/01/07 18:33:28;;;;;;;9.55;4.07;;;19.30;47.00;;;;;;5115969;27;20022;-57
2024/01/07 18:35:54;;;;;;;8.02;3.88;;;19.30;46.50;;;;;;5107306;28;20046;-57
2024/01/07 18:38:20;;;;;;;11.10;4.00;;;19.30;46.70;;;;;;5109840;27;20031;-58
2024/01/07 18:40:46;;;;;;;9.40;4.40;;;19.30;47.30;;;;;;5111485;28;20023;-58
2024/01/07 18:43:12;;;;;;;8.98;4.28;;;19.40;47.00;;;;;;5106713;28;20028;-57
2024/01/07 18:45:38;;;;;;;8.73;4.13;;;19.40;47.00;;;;;;5117292;27;20020;-57
2024/01/07 18:48:05;;;;;;;10.52;3.95;;;19.40;47.10;;;;;;5112586;28;20039;-54
2024/01/07 18:50:32;;;;;;;10.80;4.43;;;19.40;47.20;;;;;;5110828;28;20031;-58
2024/01/07 18:52:58;;;;;;;8.43;3.95;;;19.40;47.30;;;;;;5111568;28;20035;-57
2024/01/07 18:55:24;;;;;;;8.05;3.90;;;19.50;47.50;;;;;;5108915;28;20399;-57
2024/01/07 18:57:49;;;;;;;8.85;3.88;;;19.50;47.60;;;;;;5109962;28;20080;-55
2024/01/07 19:00:16;;;;;;;7.75;4.00;;;19.40;47.90;;;;;;5125250;27;20057;-57
2024/01/07 19:02:42;;;;;;;6.22;3.75;;;19.40;47.70;;;;;;5112541;28;20407;-58
2024/01/07 19:05:09;;;;;;;7.93;3.97;;;19.40;47.80;;;;;;5129439;27;20027;-53
2024/01/07 19:07:35;;;;;;;9.88;4.30;;;19.40;47.70;;;;;;5109123;28;20080;-57
2024/01/07 19:10:02;;;;;;;9.50;4.03;;;19.50;47.90;;;;;;5108797;27;20474;-58
2024/01/07 19:12:28;;;;;;;9.95;4.18;;;19.50;47.90;;;;;;5110571;28;20077;-54
2024/01/07 19:14:54;;;;;;;8.02;4.15;;;19.50;47.90;;;;;;5110645;28;20035;-55
2024/01/07 19:17:20;;;;;;;10.88;4.03;;;19.50;48.10;;;;;;5108304;28;20038;-58
2024/01/07 19:19:45;;;;;;;10.70;3.80;;;19.50;48.10;;;;;;5107229;27;20034;-57
2024/01/07 19:22:11;;;;;;;10.50;3.72;;;19.50;48.20;;;;;;5110784;28;20486;-58
2024/01/07 19:24:37;;;;;;;7.80;4.15;;;19.40;48.30;;;;;;5107402;27;20027;-55
2024/01/07 19:27:04;;;;;;;10.70;3.78;;;19.40;48.60;;;;;;5110779;28;20051;-56
2024/01/07 19:29:30;;;;;;;9.95;4.10;;;19.40;48.60;;;;;;5098380;28;20553;-58
2024/01/07 19:31:57;;;;;;;9.35;4.00;;;19.40;48.50;;;;;;5108781;28;20038;-58
2024/01/07 19:34:23;;;;;;;9.43;4.00;;;19.40;48.60;;;;;;5108789;27;20046;-55
2024/01/07 19:36:49;;;;;;;9.15;3.80;;;19.50;48.80;;;;;;5108583;28;20082;-58
2024/01/07 19:39:16;;;;;;;7.63;3.40;;;19.50;48.80;;;;;;5114104;27;20039;-57
2024/01/07 19:41:42;;;;;;;8.55;3.92;;;19.50;48.80;;;;;;5108801;28;20063;-58
2024/01/07 19:44:09;;;;;;;9.10;4.00;;;19.40;48.90;;;;;;5116464;27;20418;-55
2024/01/07 19:46:34;;;;;;;11.10;3.97;;;19.50;49.00;;;;;;5111173;28;20106;-56
2024/01/07 19:49:02;;;;;;;8.40;3.63;;;19.50;49.00;;;;;;5109968;27;20483;-58
2024/01/07 19:51:29;;;;;;;8.93;3.50;;;19.50;49.50;;;;;;5110999;28;20036;-58
2024/01/07 19:53:56;;;;;;;10.95;3.72;;;19.40;49.00;;;;;;5109885;28;20032;-56
2024/01/07 19:56:22;;;;;;;8.85;3.50;;;19.40;49.10;;;;;;5109122;28;20027;-57
2024/01/07 19:58:48;;;;;;;7.47;4.07;;;19.50;49.10;;;;;;5107557;27;20023;-55
2024/01/07 20:01:14;;;;;;;6.50;3.45;;;19.40;49.10;;;;;;5110628;28;20037;-52
2024/01/07 20:03:41;;;;;;;10.40;4.07;;;19.50;49.10;;;;;;5110707;28;20546;-58
2024/01/07 20:06:14;;;;;;;7.97;3.80;;;19.40;49.00;;;;;;5109203;28;20091;-57
2024/01/07 20:08:44;;;;;;;7.25;3.45;;;19.50;49.10;;;;;;5111620;27;20406;-57
2024/01/07 20:11:20;;;;;;;7.38;4.03;;;19.50;49.10;;;;;;5112714;27;20062;-57
2024/01/07 20:13:47;;;;;;;11.38;4.13;;;19.50;49.10;;;;;;5110721;27;20027;-57
2024/01/07 20:16:15;;;;;;;13.75;3.22;;;19.50;49.20;;;;;;5111906;27;20035;-57
2024/01/07 20:18:42;;;;;;;10.35;3.60;;;19.50;49.60;;;;;;5106654;27;20035;-54
2024/01/07 20:21:25;;;;;;;5.93;3.28;;;19.50;49.00;;;;;;5111196;27;20020;-54
2024/01/07 20:23:58;;;;;;;12.80;3.67;;;19.50;49.10;;;;;;5108139;27;20115;-55
2024/01/07 20:26:24;;;;;;;9.48;3.80;;;19.50;49.20;;;;;;5110286;28;20019;-57
2024/01/07 20:28:50;;;;;;;6.18;3.45;;;19.50;49.20;;;;;;5109758;28;20027;-58
2024/01/07 20:31:17;;;;;;;5.60;3.55;;;19.50;49.20;;;;;;5110066;28;20024;-58
2024/01/07 20:33:44;;;;;;;7.03;3.63;;;19.50;49.20;;;;;;5107864;28;20063;-54
2024/01/07 20:36:11;;;;;;;10.10;4.03;;;19.50;49.30;;;;;;5102089;28;20402;-57
2024/01/07 20:38:42;;;;;;;10.73;3.47;;;19.50;49.20;;;;;;5105112;28;20043;-50
2024/01/07 20:41:08;;;;;;;10.45;3.40;;;19.50;49.00;;;;;;5101634;28;20020;-51
2024/01/07 20:43:34;;;;;;;9.02;3.20;;;19.50;49.10;;;;;;5104185;28;20553;-51
2024/01/07 20:46:00;;;;;;;8.93;3.10;;;19.50;49.10;;;;;;5105463;28;20022;-55
2024/01/07 20:48:26;;;;;;;8.27;3.60;;;19.50;49.10;;;;;;5106335;28;20035;-53
2024/01/07 20:50:53;;;;;;;9.80;3.60;;;19.50;49.10;;;;;;5107584;28;20020;-55
2024/01/07 20:53:20;;;;;;;9.65;3.33;;;19.50;49.10;;;;;;5106444;28;20024;-52
2024/01/07 20:55:46;;;;;;;8.05;3.63;;;19.50;49.10;;;;;;5106201;28;20518;-48
2024/01/07 20:58:12;;;;;;;9.05;3.33;;;19.50;49.10;;;;;;5105264;28;20027;-53
2024/01/07 21:00:39;;;;;;;6.25;3.15;;;19.50;49.00;;;;;;5105059;28;20447;-50
2024/01/07 21:03:05;;;;;;;7.18;3.05;;;19.50;49.10;;;;;;5106410;28;20024;-54
2024/01/07 21:05:30;;;;;;;15.38;3.55;;;19.50;48.90;;;;;;5107281;28;20035;-56
2024/01/07 21:07:56;;;;;;;8.35;3.33;;;19.40;48.80;;;;;;5100562;28;20027;-56
2024/01/07 21:10:22;;;;;;;8.27;3.50;;;19.40;49.00;;;;;;5100530;28;20034;-55
2024/01/07 21:12:48;;;;;;;10.55;3.80;;;19.40;49.10;;;;;;5101046;28;20409;-57
2024/01/07 21:15:16;;;;;;;7.03;3.60;;;19.50;49.10;;;;;;5101097;28;20107;-55
2024/01/07 21:17:43;;;;;;;7.72;3.65;;;19.40;48.70;;;;;;5104486;28;20023;-55
2024/01/07 21:20:10;;;;;;;7.85;3.53;;;19.40;48.80;;;;;;5105109;28;20398;-53
2024/01/07 21:22:38;;;;;;;9.07;3.58;;;19.40;48.80;;;;;;5107550;28;20023;-57
2024/01/07 21:25:05;;;;;;;10.00;3.78;;;19.50;48.90;;;;;;5108297;28;20587;-49
2024/01/07 21:27:31;;;;;;;10.85;3.78;;;19.50;49.00;;;;;;5107076;28;20531;-53
2024/01/07 21:29:58;;;;;;;14.32;4.18;;;19.50;49.00;;;;;;5106296;28;20065;-54
2024/01/07 21:32:29;;;;;;;7.55;3.75;;;19.50;49.00;;;;;;5106935;28;20066;-55
2024/01/07 21:34:54;;;;;;;17.58;3.70;;;19.50;49.00;;;;;;5105502;28;20485;-53
2024/01/07 21:37:20;;;;;;;10.57;3.83;;;19.50;49.00;;;;;;5100809;28;20066;-52
2024/01/07 21:39:47;;;;;;;14.63;3.70;;;19.50;49.20;;;;;;5102396;28;20019;-51
2024/01/07 21:42:15;;;;;;;10.98;3.53;;;19.50;49.20;;;;;;5098470;28;20035;-50
2024/01/07 21:44:41;;;;;;;8.23;3.53;;;19.50;49.20;;;;;;5106634;28;20783;-49
2024/01/07 21:47:07;;;;;;;8.00;3.65;;;19.50;49.10;;;;;;5105679;28;20121;-54
2024/01/07 21:49:32;;;;;;;6.95;3.80;;;19.50;49.00;;;;;;5104904;28;20020;-55
2024/01/07 21:51:58;;;;;;;9.20;3.38;;;19.50;49.00;;;;;;5103670;28;20079;-52
2024/01/07 21:54:25;;;;;;;7.78;3.80;;;19.60;49.00;;;;;;5100412;28;20028;-54
2024/01/07 21:56:52;;;;;;;11.65;3.67;;;19.50;49.00;;;;;;5101318;28;20535;-56
2024/01/07 21:59:18;;;;;;;6.95;3.72;;;19.60;49.00;;;;;;5104277;28;20509;-56
2024/01/07 22:01:44;;;;;;;8.77;3.38;;;19.60;48.80;;;;;;5105002;28;20397;-55
2024/01/07 22:04:09;;;;;;;9.43;3.30;;;19.50;48.80;;;;;;5104895;28;20016;-52
2024/01/07 22:06:39;;;;;;;20.15;4.18;;;19.50;48.90;;;;;;5109002;28;20452;-57
2024/01/07 22:09:04;;;;;;;12.07;4.13;;;19.50;49.00;;;;;;5105998;28;20522;-54
2024/01/07 22:11:32;;;;;;;17.98;3.85;;;19.50;48.90;;;;;;5108711;27;20027;-55
2024/01/07 22:13:58;;;;;;;7.85;3.45;;;19.50;49.10;;;;;;5109073;28;20500;-52
2024/01/07 22:16:24;;;;;;;11.10;3.97;;;19.60;48.80;;;;;;5108815;27;20168;-56
2024/01/07 22:18:49;;;;;;;5.97;3.58;;;19.60;48.80;;;;;;5108607;28;20107;-57
2024/01/07 22:21:20;;;;;;;8.18;3.90;;;19.50;48.70;;;;;;5109036;28;20038;-55
2024/01/07 22:23:46;;;;;;;7.82;3.78;;;19.50;48.70;;;;;;5106395;28;20028;-54
2024/01/07 22:26:16;;;;;;;9.90;3.88;;;19.60;48.70;;;;;;5108081;28;20531;-56
2024/01/07 22:28:45;;;;;;;;;;;19.50;48.60;;;;;;5103901;28;20201;-57
2024/01/07 22:31:12;;;;;;;8.57;3.72;;;19.50;48.60;;;;;;5104304;27;20048;-54
2024/01/07 22:33:37;;;;;;;8.57;3.80;;;19.50;48.50;;;;;;5108371;28;20020;-55
2024/01/07 22:36:03;;;;;;;14.32;4.00;;;19.50;48.50;;;;;;5106319;27;20494;-54
2024/01/07 22:38:29;;;;;;;7.40;3.75;;;19.50;48.20;;;;;;5105231;28;20038;-55
2024/01/07 22:40:55;;;;;;;10.05;4.40;;;19.50;48.30;;;;;;5103003;28;20042;-57
2024/01/07 22:43:21;;;;;;;7.90;3.78;;;19.50;48.30;;;;;;5101417;28;20116;-56
2024/01/07 22:45:47;;;;;;;9.27;4.40;;;19.50;48.40;;;;;;5107167;28;20031;-50
2024/01/07 22:48:13;;;;;;;8.13;4.10;;;19.60;48.10;;;;;;5106197;28;20020;-54
2024/01/07 22:50:39;;;;;;;10.55;4.10;;;19.60;48.40;;;;;;5110009;27;20372;-54
2024/01/07 22:53:05;;;;;;;9.88;4.03;;;19.60;48.40;;;;;;5108085;28;20158;-53
2024/01/07 22:55:31;;;;;;;10.82;3.95;;;19.60;48.60;;;;;;5108176;27;20107;-56
2024/01/07 22:57:57;;;;;;;7.85;4.05;;;19.60;48.70;;;;;;5104106;28;20496;-55
2024/01/07 23:00:25;;;;;;;8.57;3.88;;;19.60;49.30;;;;;;5105790;27;20050;-57
2024/01/07 23:02:51;;;;;;;11.02;4.22;;;19.60;49.80;;;;;;5108056;28;20028;-57
2024/01/07 23:05:17;;;;;;;11.77;3.80;;;19.60;50.30;;;;;;5102199;28;20027;-56
2024/01/07 23:07:43;;;;;;;11.68;3.85;;;19.60;50.70;;;;;;5108353;28;20020;-55
2024/01/07 23:10:10;;;;;;;9.85;3.72;;;19.60;51.10;;;;;;5107158;28;20035;-57
2024/01/07 23:12:36;;;;;;;9.27;3.53;;;19.50;51.30;;;;;;5107840;28;20046;-53
2024/01/07 23:15:03;;;;;;;14.23;3.95;;;19.50;51.70;;;;;;5108652;27;20103;-49
2024/01/07 23:17:29;;;;;;;7.65;3.92;;;19.50;51.90;;;;;;5111138;27;20027;-56
2024/01/07 23:19:55;;;;;;;8.65;4.03;;;19.50;52.00;;;;;;5090418;28;20035;-51
2024/01/07 23:22:22;;;;;;;7.95;3.75;;;19.50;52.10;;;;;;5109703;27;20077;-57
2024/01/07 23:24:48;;;;;;;10.13;3.92;;;19.50;52.40;;;;;;5105039;28;20430;-57
2024/01/07 23:27:14;;;;;;;9.80;3.85;;;19.50;52.60;;;;;;5107285;27;20193;-54
2024/01/07 23:29:40;;;;;;;8.13;4.05;;;19.50;52.90;;;;;;5106387;28;20047;-54
2024/01/07 23:32:06;;;;;;;8.98;3.85;;;19.50;53.20;;;;;;5069651;28;20062;-56
2024/01/07 23:34:33;;;;;;;10.50;3.63;;;19.50;53.10;;;;;;5107393;28;20106;-54
2024/01/07 23:36:59;;;;;;;9.35;3.88;;;19.50;53.60;;;;;;5105071;28;20023;-52
2024/01/07 23:39:25;;;;;;;8.43;3.80;;;19.50;53.60;;;;;;5102976;28;20027;-54
2024/01/07 23:41:50;;;;;;;11.10;3.58;;;19.50;53.70;;;;;;5107813;28;20507;-56
2024/01/07 23:44:16;;;;;;;13.23;3.75;;;19.50;53.70;;;;;;5107528;28;20394;-57
2024/01/07 23:46:42;;;;;;;8.82;3.95;;;19.50;53.80;;;;;;5103739;28;20034;-56
2024/01/07 23:49:08;;;;;;;7.90;4.05;;;19.50;54.00;;;;;;5102306;28;20063;-57
2024/01/07 23:51:33;;;;;;;7.75;3.65;;;19.50;53.80;;;;;;5101183;27;20024;-52
2024/01/07 23:53:59;;;;;;;7.80;3.65;;;19.50;54.20;;;;;;5102716;28;20033;-56
2024/01/07 23:56:25;;;;;;;7.43;3.40;;;19.40;53.70;;;;;;5103958;28;20122;-53
2024/01/07 23:58:51;;;;;;;6.88;3.35;;;19.50;54.40;;;;;;5106732;28;20043;-54
